sensor_id;sensor_type;location;lat;lon;timestamp;pressure;altitude;pressure_sealevel;temperature;humidity
62849;BME280;48941;49.516;8.286;2024-02-26T00:00:06;98470.28;;;6.96;100.00
62849;BME280;48941;49.516;8.286;2024-02-26T00:02:36;98480.84;;;6.96;100.00
62849;BME280;48941;49.516;8.286;2024-02-26T00:05:05;98488.94;;;6.94;100.00
62849;BME280;48941;49.516;8.286;2024-02-26T00:07:33;98477.06;;;6.98;100.00
62849;BME280;48941;49.516;8.286;2024-02-26T00:10:01;98482.38;;;6.98;100.00
62849;BME280;48941;49.516;8.286;2024-02-26T00:12:29;98494.91;;;6.96;100.00
62849;BME280;48941;49.516;8.286;2024-02-26T00:14:58;98499.13;;;6.99;100.00
62849;BME280;48941;49.516;8.286;2024-02-26T00:17:26;98490.19;;;7.00;100.00
62849;BME280;48941;49.516;8.286;2024-02-26T00:19:53;98492.28;;;6.96;100.00
62849;BME280;48941;49.516;8.286;2024-02-26T00:22:21;98502.03;;;6.96;100.00
62849;BME280;48941;49.516;8.286;2024-02-26T00:24:49;98495.09;;;6.95;100.00
62849;BME280;48941;49.516;8.286;2024-02-26T00:27:17;98492.84;;;6.90;100.00
62849;BME280;48941;49.516;8.286;2024-02-26T00:29:45;98497.31;;;6.90;100.00
62849;BME280;48941;49.516;8.286;2024-02-26T00:32:13;98498.16;;;6.90;100.00
62849;BME280;48941;49.516;8.286;2024-02-26T00:34:41;98494.69;;;6.90;100.00
62849;BME280;48941;49.516;8.286;2024-02-26T00:37:09;98491.72;;;6.93;100.00
62849;BME280;48941;49.516;8.286;2024-02-26T00:39:36;98486.44;;;6.93;100.00
62849;BME280;48941;49.516;8.286;2024-02-26T00:42:04;98490.75;;;6.94;100.00
62849;BME280;48941;49.516;8.286;2024-02-26T00:44:32;98486.75;;;6.90;100.00
62849;BME280;48941;49.516;8.286;2024-02-26T00:47:00;98491.47;;;6.86;100.00
62849;BME280;48941;49.516;8.286;2024-02-26T00:49:30;98488.28;;;6.83;100.00
62849;BME280;48941;49.516;8.286;2024-02-26T00:51:57;98487.31;;;6.84;100.00
62849;BME280;48941;49.516;8.286;2024-02-26T00:54:25;98485.38;;;6.86;100.00
62849;BME280;48941;49.516;8.286;2024-02-26T00:56:53;98486.50;;;6.83;100.00
62849;BME280;48941;49.516;8.286;2024-02-26T00:59:21;98489.97;;;6.84;100.00
62849;BME280;48941;49.516;8.286;2024-02-26T01:01:48;98491.94;;;6.82;100.00
62849;BME280;48941;49.516;8.286;2024-02-26T01:04:16;98499.72;;;6.83;100.00
62849;BME280;48941;49.516;8.286;2024-02-26T01:06:45;98501.69;;;6.81;100.00
62849;BME280;48941;49.516;8.286;2024-02-26T01:09:13;98512.28;;;6.81;100.00
62849;BME280;48941;49.516;8.286;2024-02-26T01:11:42;98511.84;;;6.86;100.00
62849;BME280;48941;49.516;8.286;2024-02-26T01:14:09;98511.94;;;6.94;100.00
62849;BME280;48941;49.516;8.286;2024-02-26T01:16:38;98520.69;;;6.94;100.00
62849;BME280;48941;49.516;8.286;2024-02-26T01:19:06;98522.38;;;6.95;100.00
62849;BME280;48941;49.516;8.286;2024-02-26T01:21:34;98523.22;;;6.96;100.00
62849;BME280;48941;49.516;8.286;2024-02-26T01:24:04;98527.38;;;6.98;100.00
62849;BME280;48941;49.516;8.286;2024-02-26T01:26:32;98536.53;;;7.04;100.00
62849;BME280;48941;49.516;8.286;2024-02-26T01:28:59;98532.63;;;7.08;100.00
62849;BME280;48941;49.516;8.286;2024-02-26T01:31:27;98530.38;;;7.13;100.00
62849;BME280;48941;49.516;8.286;2024-02-26T01:33:55;98524.78;;;7.16;100.00
62849;BME280;48941;49.516;8.286;2024-02-26T01:36:23;98520.84;;;7.21;100.00
62849;BME280;48941;49.516;8.286;2024-02-26T01:38:52;98517.94;;;7.24;100.00
62849;BME280;48941;49.516;8.286;2024-02-26T01:41:21;98521.25;;;7.26;100.00
62849;BME280;48941;49.516;8.286;2024-02-26T01:43:48;98525.41;;;7.28;100.00
62849;BME280;48941;49.516;8.286;2024-02-26T01:46:17;98526.94;;;7.31;100.00
62849;BME280;48941;49.516;8.286;2024-02-26T01:48:45;98534.59;;;7.34;100.00
62849;BME280;48941;49.516;8.286;2024-02-26T01:51:16;98541.41;;;7.36;100.00
62849;BME280;48941;49.516;8.286;2024-02-26T01:53:45;98542.25;;;7.37;100.00
62849;BME280;48941;49.516;8.286;2024-02-26T01:56:14;98550.91;;;7.39;100.00
62849;BME280;48941;49.516;8.286;2024-02-26T01:58:44;98541.25;;;7.38;100.00
62849;BME280;48941;49.516;8.286;2024-02-26T02:01:12;98540.44;;;7.37;100.00
62849;BME280;48941;49.516;8.286;2024-02-26T02:03:40;98544.06;;;7.36;100.00
62849;BME280;48941;49.516;8.286;2024-02-26T02:06:09;98531.13;;;7.33;100.00
62849;BME280;48941;49.516;8.286;2024-02-26T02:08:37;98538.25;;;7.33;100.00
62849;BME280;48941;49.516;8.286;2024-02-26T02:11:06;98527.66;;;7.33;100.00
62849;BME280;48941;49.516;8.286;2024-02-26T02:13:34;98528.47;;;7.33;100.00
62849;BME280;48941;49.516;8.286;2024-02-26T02:16:03;98526.66;;;7.34;100.00
62849;BME280;48941;49.516;8.286;2024-02-26T02:18:31;98529.75;;;7.29;100.00
62849;BME280;48941;49.516;8.286;2024-02-26T02:21:01;98529.75;;;7.29;100.00
62849;BME280;48941;49.516;8.286;2024-02-26T02:23:29;98529.06;;;7.27;100.00
62849;BME280;48941;49.516;8.286;2024-02-26T02:25:57;98537.00;;;7.27;100.00
62849;BME280;48941;49.516;8.286;2024-02-26T02:28:27;98531.03;;;7.25;100.00
62849;BME280;48941;49.516;8.286;2024-02-26T02:30:55;98531.16;;;7.24;100.00
62849;BME280;48941;49.516;8.286;2024-02-26T02:33:24;98542.03;;;7.21;100.00
62849;BME280;48941;49.516;8.286;2024-02-26T02:35:53;98536.75;;;7.21;100.00
62849;BME280;48941;49.516;8.286;2024-02-26T02:38:23;98541.34;;;7.18;100.00
62849;BME280;48941;49.516;8.286;2024-02-26T02:40:52;98538.88;;;7.17;100.00
62849;BME280;48941;49.516;8.286;2024-02-26T02:43:20;98538.34;;;7.13;100.00
62849;BME280;48941;49.516;8.286;2024-02-26T02:45:47;98542.94;;;7.11;100.00
62849;BME280;48941;49.516;8.286;2024-02-26T02:48:15;98542.38;;;7.08;100.00
62849;BME280;48941;49.516;8.286;2024-02-26T02:50:43;98543.53;;;7.05;100.00
62849;BME280;48941;49.516;8.286;2024-02-26T02:53:11;98544.50;;;7.04;100.00
62849;BME280;48941;49.516;8.286;2024-02-26T02:55:40;98548.97;;;7.04;100.00
62849;BME280;48941;49.516;8.286;2024-02-26T02:58:08;98544.78;;;7.01;100.00
62849;BME280;48941;49.516;8.286;2024-02-26T03:00:35;98540.31;;;7.02;100.00
62849;BME280;48941;49.516;8.286;2024-02-26T03:03:04;98544.78;;;7.01;100.00
62849;BME280;48941;49.516;8.286;2024-02-26T03:05:32;98544.78;;;7.01;100.00
62849;BME280;48941;49.516;8.286;2024-02-26T03:08:00;98547.28;;;7.03;100.00
62849;BME280;48941;49.516;8.286;2024-02-26T03:10:28;98542.97;;;7.02;100.00
62849;BME280;48941;49.516;8.286;2024-02-26T03:12:57;98541.97;;;7.03;100.00
62849;BME280;48941;49.516;8.286;2024-02-26T03:15:25;98541.84;;;7.04;100.00
62849;BME280;48941;49.516;8.286;2024-02-26T03:17:53;98550.47;;;7.06;100.00
62849;BME280;48941;49.516;8.286;2024-02-26T03:20:20;98539.75;;;7.08;100.00
62849;BME280;48941;49.516;8.286;2024-02-26T03:22:48;98547.69;;;7.08;100.00
62849;BME280;48941;49.516;8.286;2024-02-26T03:25:16;98535.28;;;7.08;100.00
62849;BME280;48941;49.516;8.286;2024-02-26T03:27:43;98540.72;;;7.07;100.00
62849;BME280;48941;49.516;8.286;2024-02-26T03:30:13;98540.03;;;7.05;100.00
62849;BME280;48941;49.516;8.286;2024-02-26T03:32:41;98538.91;;;7.07;100.00
62849;BME280;48941;49.516;8.286;2024-02-26T03:35:09;98531.81;;;7.08;100.00
62849;BME280;48941;49.516;8.286;2024-02-26T03:37:37;98537.91;;;7.08;100.00
62849;BME280;48941;49.516;8.286;2024-02-26T03:40:06;98531.66;;;7.09;100.00
62849;BME280;48941;49.516;8.286;2024-02-26T03:42:34;98534.44;;;7.08;100.00
62849;BME280;48941;49.516;8.286;2024-02-26T03:45:02;98536.09;;;7.09;100.00
62849;BME280;48941;49.516;8.286;2024-02-26T03:47:31;98537.09;;;7.08;100.00
62849;BME280;48941;49.516;8.286;2024-02-26T03:49:59;98538.06;;;7.07;100.00
62849;BME280;48941;49.516;8.286;2024-02-26T03:52:27;98528.31;;;7.07;100.00
62849;BME280;48941;49.516;8.286;2024-02-26T03:54:54;98529.28;;;7.06;100.00
62849;BME280;48941;49.516;8.286;2024-02-26T03:57:22;98529.28;;;7.06;100.00
62849;BME280;48941;49.516;8.286;2024-02-26T03:59:50;98529.16;;;7.08;100.00
62849;BME280;48941;49.516;8.286;2024-02-26T04:02:18;98527.34;;;7.08;100.00
62849;BME280;48941;49.516;8.286;2024-02-26T04:04:48;98520.06;;;7.10;100.00
62849;BME280;48941;49.516;8.286;2024-02-26T04:07:16;98514.91;;;7.09;100.00
62849;BME280;48941;49.516;8.286;2024-02-26T04:09:44;98516.75;;;7.08;100.00
62849;BME280;48941;49.516;8.286;2024-02-26T04:12:12;98513.97;;;7.10;100.00
62849;BME280;48941;49.516;8.286;2024-02-26T04:14:40;98504.34;;;7.09;100.00
62849;BME280;48941;49.516;8.286;2024-02-26T04:17:07;98509.09;;;7.05;100.00
62849;BME280;48941;49.516;8.286;2024-02-26T04:19:35;98506.47;;;7.05;100.00
62849;BME280;48941;49.516;8.286;2024-02-26T04:22:05;98517.88;;;7.06;100.00
62849;BME280;48941;49.516;8.286;2024-02-26T04:24:32;98501.31;;;7.04;100.00
62849;BME280;48941;49.516;8.286;2024-02-26T04:27:00;98513.03;;;7.01;100.00
62849;BME280;48941;49.516;8.286;2024-02-26T04:29:28;98515.13;;;6.97;100.00
62849;BME280;48941;49.516;8.286;2024-02-26T04:31:56;98521.94;;;7.00;100.00
62849;BME280;48941;49.516;8.286;2024-02-26T04:34:23;98507.06;;;6.99;100.00
62849;BME280;48941;49.516;8.286;2024-02-26T04:36:51;98513.06;;;6.91;100.00
62849;BME280;48941;49.516;8.286;2024-02-26T04:39:21;98517.13;;;6.86;100.00
62849;BME280;48941;49.516;8.286;2024-02-26T04:41:48;98516.44;;;6.84;100.00
62849;BME280;48941;49.516;8.286;2024-02-26T04:44:16;98523.38;;;6.85;100.00
62849;BME280;48941;49.516;8.286;2024-02-26T04:46:44;98525.34;;;6.83;100.00
62849;BME280;48941;49.516;8.286;2024-02-26T04:49:11;98527.03;;;6.84;100.00
62849;BME280;48941;49.516;8.286;2024-02-26T04:51:39;98525.19;;;6.84;100.00
62849;BME280;48941;49.516;8.286;2024-02-26T04:54:07;98531.31;;;6.85;100.00
62849;BME280;48941;49.516;8.286;2024-02-26T04:56:36;98525.66;;;6.80;100.00
62849;BME280;48941;49.516;8.286;2024-02-26T04:59:04;98517.97;;;6.76;100.00
62849;BME280;48941;49.516;8.286;2024-02-26T05:01:31;98523.28;;;6.76;100.00
62849;BME280;48941;49.516;8.286;2024-02-26T05:03:59;98521.47;;;6.77;100.00
62849;BME280;48941;49.516;8.286;2024-02-26T05:06:27;98521.63;;;6.75;100.00
62849;BME280;48941;49.516;8.286;2024-02-26T05:08:55;98521.63;;;6.75;100.00
62849;BME280;48941;49.516;8.286;2024-02-26T05:11:23;98524.25;;;6.75;100.00
62849;BME280;48941;49.516;8.286;2024-02-26T05:13:52;98520.06;;;6.73;100.00
62849;BME280;48941;49.516;8.286;2024-02-26T05:16:20;98524.69;;;6.71;100.00
62849;BME280;48941;49.516;8.286;2024-02-26T05:18:51;98524.84;;;6.69;100.00
62849;BME280;48941;49.516;8.286;2024-02-26T05:21:19;98533.88;;;6.67;100.00
62849;BME280;48941;49.516;8.286;2024-02-26T05:23:47;98529.44;;;6.67;100.00
62849;BME280;48941;49.516;8.286;2024-02-26T05:26:19;98532.38;;;6.64;100.00
62849;BME280;48941;49.516;8.286;2024-02-26T05:28:47;98538.78;;;6.62;100.00
62849;BME280;48941;49.516;8.286;2024-02-26T05:31:17;98530.16;;;6.60;100.00
62849;BME280;48941;49.516;8.286;2024-02-26T05:33:45;98543.94;;;6.63;100.00
62849;BME280;48941;49.516;8.286;2024-02-26T05:36:18;98541.28;;;6.63;100.00
62849;BME280;48941;49.516;8.286;2024-02-26T05:38:45;98540.59;;;6.61;100.00
62849;BME280;48941;49.516;8.286;2024-02-26T05:41:14;98544.22;;;6.60;100.00
62849;BME280;48941;49.516;8.286;2024-02-26T05:43:42;98547.28;;;6.55;100.00
62849;BME280;48941;49.516;8.286;2024-02-26T05:46:10;98547.28;;;6.55;100.00
62849;BME280;48941;49.516;8.286;2024-02-26T05:48:39;98551.91;;;6.53;100.00
62849;BME280;48941;49.516;8.286;2024-02-26T05:51:07;98557.88;;;6.55;100.00
62849;BME280;48941;49.516;8.286;2024-02-26T05:53:35;98549.94;;;6.55;100.00
62849;BME280;48941;49.516;8.286;2024-02-26T05:56:03;98563.31;;;6.54;100.00
62849;BME280;48941;49.516;8.286;2024-02-26T05:58:31;98565.38;;;6.50;100.00
62849;BME280;48941;49.516;8.286;2024-02-26T06:01:01;98567.34;;;6.48;100.00
62849;BME280;48941;49.516;8.286;2024-02-26T06:03:29;98578.22;;;6.45;100.00
62849;BME280;48941;49.516;8.286;2024-02-26T06:05:58;98580.69;;;6.47;100.00
62849;BME280;48941;49.516;8.286;2024-02-26T06:08:26;98580.28;;;6.51;100.00
62849;BME280;48941;49.516;8.286;2024-02-26T06:10:54;98588.06;;;6.53;100.00
62849;BME280;48941;49.516;8.286;2024-02-26T06:13:22;98588.75;;;6.55;100.00
62849;BME280;48941;49.516;8.286;2024-02-26T06:15:49;98597.56;;;6.55;100.00
62849;BME280;48941;49.516;8.286;2024-02-26T06:18:17;98597.41;;;6.57;100.00
62849;BME280;48941;49.516;8.286;2024-02-26T06:20:45;98598.25;;;6.57;100.00
62849;BME280;48941;49.516;8.286;2024-02-26T06:23:14;98613.41;;;6.55;100.00
62849;BME280;48941;49.516;8.286;2024-02-26T06:25:42;98617.72;;;6.56;100.00
62849;BME280;48941;49.516;8.286;2024-02-26T06:28:10;98624.00;;;6.55;100.00
62849;BME280;48941;49.516;8.286;2024-02-26T06:30:37;98628.59;;;6.53;100.00
62849;BME280;48941;49.516;8.286;2024-02-26T06:33:05;98624.13;;;6.54;100.00
62849;BME280;48941;49.516;8.286;2024-02-26T06:35:33;98628.44;;;6.55;100.00
62849;BME280;48941;49.516;8.286;2024-02-26T06:38:01;98630.94;;;6.56;100.00
62849;BME280;48941;49.516;8.286;2024-02-26T06:40:30;98637.09;;;6.57;100.00
62849;BME280;48941;49.516;8.286;2024-02-26T06:42:58;98644.88;;;6.58;100.00
62849;BME280;48941;49.516;8.286;2024-02-26T06:45:26;98648.38;;;6.59;100.00
62849;BME280;48941;49.516;8.286;2024-02-26T06:47:53;98650.84;;;6.61;100.00
62849;BME280;48941;49.516;8.286;2024-02-26T06:50:22;98651.53;;;6.63;100.00
62849;BME280;48941;49.516;8.286;2024-02-26T06:52:50;98654.47;;;6.69;100.00
62849;BME280;48941;49.516;8.286;2024-02-26T06:55:17;98656.56;;;6.66;100.00
62849;BME280;48941;49.516;8.286;2024-02-26T06:57:47;98658.22;;;6.67;100.00
62849;BME280;48941;49.516;8.286;2024-02-26T07:00:15;98656.44;;;6.67;100.00
62849;BME280;48941;49.516;8.286;2024-02-26T07:02:44;98664.91;;;6.71;100.00
62849;BME280;48941;49.516;8.286;2024-02-26T07:05:12;98659.34;;;6.74;100.00
62849;BME280;48941;49.516;8.286;2024-02-26T07:07:40;98669.50;;;6.78;100.00
62849;BME280;48941;49.516;8.286;2024-02-26T07:10:08;98658.78;;;6.80;100.00
62849;BME280;48941;49.516;8.286;2024-02-26T07:12:36;98669.09;;;6.83;100.00
62849;BME280;48941;49.516;8.286;2024-02-26T07:15:07;98659.47;;;6.82;100.00
62849;BME280;48941;49.516;8.286;2024-02-26T07:17:35;98674.38;;;6.83;100.00
62849;BME280;48941;49.516;8.286;2024-02-26T07:20:03;98661.69;;;6.87;100.00
62849;BME280;48941;49.516;8.286;2024-02-26T07:22:35;98678.00;;;6.92;100.00
62849;BME280;48941;49.516;8.286;2024-02-26T07:25:04;98676.84;;;6.94;100.00
62849;BME280;48941;49.516;8.286;2024-02-26T07:27:34;98674.78;;;6.98;100.00
62849;BME280;48941;49.516;8.286;2024-02-26T07:30:02;98681.59;;;7.01;100.00
62849;BME280;48941;49.516;8.286;2024-02-26T07:32:32;98673.81;;;6.99;100.00
62849;BME280;48941;49.516;8.286;2024-02-26T07:35:00;98686.75;;;7.02;100.00
62849;BME280;48941;49.516;8.286;2024-02-26T07:37:28;98683.81;;;7.05;100.00
62849;BME280;48941;49.516;8.286;2024-02-26T07:39:55;98692.47;;;7.07;100.00
62849;BME280;48941;49.516;8.286;2024-02-26T07:42:23;98699.41;;;7.08;100.00
62849;BME280;48941;49.516;8.286;2024-02-26T07:44:51;98698.28;;;7.11;100.00
62849;BME280;48941;49.516;8.286;2024-02-26T07:47:19;98693.00;;;7.11;100.00
62849;BME280;48941;49.516;8.286;2024-02-26T07:49:48;98683.38;;;7.10;100.00
62849;BME280;48941;49.516;8.286;2024-02-26T07:52:17;98687.56;;;7.12;100.00
62849;BME280;48941;49.516;8.286;2024-02-26T07:54:44;98695.22;;;7.15;100.00
62849;BME280;48941;49.516;8.286;2024-02-26T07:57:12;98697.44;;;7.20;100.00
62849;BME280;48941;49.516;8.286;2024-02-26T07:59:43;98701.34;;;7.26;100.00
62849;BME280;48941;49.516;8.286;2024-02-26T08:02:11;98701.03;;;7.29;100.00
62849;BME280;48941;49.516;8.286;2024-02-26T08:04:39;98695.59;;;7.30;100.00
62849;BME280;48941;49.516;8.286;2024-02-26T08:07:08;98695.47;;;7.32;100.00
62849;BME280;48941;49.516;8.286;2024-02-26T08:09:36;98699.50;;;7.36;100.00
62849;BME280;48941;49.516;8.286;2024-02-26T08:12:04;98709.25;;;7.35;100.00
62849;BME280;48941;49.516;8.286;2024-02-26T08:14:32;98708.00;;;7.40;100.00
62849;BME280;48941;49.516;8.286;2024-02-26T08:17:00;98712.03;;;7.44;100.00
62849;BME280;48941;49.516;8.286;2024-02-26T08:19:28;98717.31;;;7.44;100.00
62849;BME280;48941;49.516;8.286;2024-02-26T08:21:56;98716.19;;;7.46;100.00
62849;BME280;48941;49.516;8.286;2024-02-26T08:24:26;98715.91;;;7.49;100.00
62849;BME280;48941;49.516;8.286;2024-02-26T08:26:55;98699.72;;;7.52;100.00
62849;BME280;48941;49.516;8.286;2024-02-26T08:29:22;98702.22;;;7.54;100.00
62849;BME280;48941;49.516;8.286;2024-02-26T08:31:50;98698.63;;;7.55;100.00
62849;BME280;48941;49.516;8.286;2024-02-26T08:34:18;98700.81;;;7.60;100.00
62849;BME280;48941;49.516;8.286;2024-02-26T08:36:46;98704.72;;;7.65;100.00
62849;BME280;48941;49.516;8.286;2024-02-26T08:39:15;98705.41;;;7.67;100.00
62849;BME280;48941;49.516;8.286;2024-02-26T08:41:45;98699.66;;;7.72;100.00
62849;BME280;48941;49.516;8.286;2024-02-26T08:44:13;98698.50;;;7.74;100.00
62849;BME280;48941;49.516;8.286;2024-02-26T08:46:41;98698.38;;;7.76;100.00
62849;BME280;48941;49.516;8.286;2024-02-26T08:49:08;98705.72;;;7.82;100.00
62849;BME280;48941;49.516;8.286;2024-02-26T08:51:41;98701.13;;;7.84;100.00
62849;BME280;48941;49.516;8.286;2024-02-26T08:54:09;98705.28;;;7.87;100.00
62849;BME280;48941;49.516;8.286;2024-02-26T08:56:36;98703.19;;;7.90;100.00
62849;BME280;48941;49.516;8.286;2024-02-26T08:59:06;98703.19;;;7.90;100.00
62849;BME280;48941;49.516;8.286;2024-02-26T09:01:33;98703.34;;;7.89;100.00
62849;BME280;48941;49.516;8.286;2024-02-26T09:04:01;98710.16;;;7.91;100.00
62849;BME280;48941;49.516;8.286;2024-02-26T09:06:29;98708.78;;;7.87;100.00
62849;BME280;48941;49.516;8.286;2024-02-26T09:08:57;98714.47;;;7.92;100.00
62849;BME280;48941;49.516;8.286;2024-02-26T09:11:27;98726.63;;;7.95;100.00
62849;BME280;48941;49.516;8.286;2024-02-26T09:13:55;98725.34;;;7.99;100.00
62849;BME280;48941;49.516;8.286;2024-02-26T09:16:24;98728.00;;;7.99;100.00
62849;BME280;48941;49.516;8.286;2024-02-26T09:18:52;98723.22;;;8.03;100.00
62849;BME280;48941;49.516;8.286;2024-02-26T09:21:20;98723.06;;;8.04;100.00
62849;BME280;48941;49.516;8.286;2024-02-26T09:23:50;98722.09;;;8.05;100.00
62849;BME280;48941;49.516;8.286;2024-02-26T09:26:19;98725.13;;;8.10;100.00
62849;BME280;48941;49.516;8.286;2024-02-26T09:28:47;98724.03;;;8.13;100.00
62849;BME280;48941;49.516;8.286;2024-02-26T09:31:15;98723.44;;;8.19;100.00
62849;BME280;48941;49.516;8.286;2024-02-26T09:33:45;98733.56;;;8.24;100.00
62849;BME280;48941;49.516;8.286;2024-02-26T09:36:13;98732.28;;;8.28;100.00
62849;BME280;48941;49.516;8.286;2024-02-26T09:38:41;98736.47;;;8.30;100.00
62849;BME280;48941;49.516;8.286;2024-02-26T09:41:22;98736.63;;;8.29;100.00
62849;BME280;48941;49.516;8.286;2024-02-26T09:43:52;98743.59;;;8.30;100.00
62849;BME280;48941;49.516;8.286;2024-02-26T09:46:23;98745.09;;;8.32;100.00
62849;BME280;48941;49.516;8.286;2024-02-26T09:48:54;98747.47;;;8.35;100.00
62849;BME280;48941;49.516;8.286;2024-02-26T09:51:23;98765.34;;;8.43;100.00
62849;BME280;48941;49.516;8.286;2024-02-26T09:53:52;98768.22;;;8.50;100.00
62849;BME280;48941;49.516;8.286;2024-02-26T09:56:21;98764.75;;;8.49;100.00
62849;BME280;48941;49.516;8.286;2024-02-26T09:58:50;98755.34;;;8.55;100.00
62849;BME280;48941;49.516;8.286;2024-02-26T10:01:21;98751.41;;;8.59;100.00
62849;BME280;48941;49.516;8.286;2024-02-26T10:03:54;98760.41;;;8.66;100.00
62849;BME280;48941;49.516;8.286;2024-02-26T10:06:23;98760.66;;;8.73;100.00
62849;BME280;48941;49.516;8.286;2024-02-26T10:08:53;98761.88;;;8.78;100.00
62849;BME280;48941;49.516;8.286;2024-02-26T10:11:21;98757.47;;;8.87;100.00
62849;BME280;48941;49.516;8.286;2024-02-26T10:13:49;98756.72;;;8.95;100.00
62849;BME280;48941;49.516;8.286;2024-02-26T10:16:17;98750.47;;;9.04;100.00
62849;BME280;48941;49.516;8.286;2024-02-26T10:18:47;98751.41;;;9.13;100.00
62849;BME280;48941;49.516;8.286;2024-02-26T10:21:19;98759.03;;;9.16;100.00
62849;BME280;48941;49.516;8.286;2024-02-26T10:23:49;98756.78;;;9.21;100.00
62849;BME280;48941;49.516;8.286;2024-02-26T10:26:17;98762.63;;;9.25;100.00
62849;BME280;48941;49.516;8.286;2024-02-26T10:28:45;98754.47;;;9.26;100.00
62849;BME280;48941;49.516;8.286;2024-02-26T10:31:19;98752.72;;;9.35;100.00
62849;BME280;48941;49.516;8.286;2024-02-26T10:33:47;98759.94;;;9.43;100.00
62849;BME280;48941;49.516;8.286;2024-02-26T10:36:14;98760.66;;;9.53;100.00
62849;BME280;48941;49.516;8.286;2024-02-26T10:38:44;98760.22;;;9.66;100.00
62849;BME280;48941;49.516;8.286;2024-02-26T10:41:13;98774.13;;;9.86;100.00
62849;BME280;48941;49.516;8.286;2024-02-26T10:43:42;98758.81;;;10.14;100.00
62849;BME280;48941;49.516;8.286;2024-02-26T10:46:10;98766.09;;;10.46;100.00
62849;BME280;48941;49.516;8.286;2024-02-26T10:48:38;98758.72;;;10.74;100.00
62849;BME280;48941;49.516;8.286;2024-02-26T10:51:09;98775.69;;;10.98;100.00
62849;BME280;48941;49.516;8.286;2024-02-26T10:53:41;98777.22;;;11.25;100.00
62849;BME280;48941;49.516;8.286;2024-02-26T10:56:15;98769.84;;;11.52;100.00
62849;BME280;48941;49.516;8.286;2024-02-26T10:58:44;98770.53;;;11.70;100.00
62849;BME280;48941;49.516;8.286;2024-02-26T11:01:13;98782.16;;;11.77;100.00
62849;BME280;48941;49.516;8.286;2024-02-26T11:03:41;98787.50;;;11.77;100.00
62849;BME280;48941;49.516;8.286;2024-02-26T11:06:10;98780.50;;;11.76;100.00
62849;BME280;48941;49.516;8.286;2024-02-26T11:08:39;98788.00;;;11.73;100.00
62849;BME280;48941;49.516;8.286;2024-02-26T11:11:07;98789.84;;;11.72;100.00
62849;BME280;48941;49.516;8.286;2024-02-26T11:13:37;98792.53;;;11.72;100.00
62849;BME280;48941;49.516;8.286;2024-02-26T11:16:10;98783.84;;;11.70;100.00
62849;BME280;48941;49.516;8.286;2024-02-26T11:18:39;98786.16;;;11.73;100.00
62849;BME280;48941;49.516;8.286;2024-02-26T11:21:12;98792.53;;;11.72;100.00
62849;BME280;48941;49.516;8.286;2024-02-26T11:23:40;98790.69;;;11.73;100.00
62849;BME280;48941;49.516;8.286;2024-02-26T11:26:09;98796.34;;;11.70;100.00
62849;BME280;48941;49.516;8.286;2024-02-26T11:28:40;98793.88;;;11.68;100.00
62849;BME280;48941;49.516;8.286;2024-02-26T11:31:10;98794.34;;;11.64;100.00
62849;BME280;48941;49.516;8.286;2024-02-26T11:33:39;98796.50;;;11.60;100.00
62849;BME280;48941;49.516;8.286;2024-02-26T11:36:08;98784.19;;;11.59;100.00
62849;BME280;48941;49.516;8.286;2024-02-26T11:38:37;98794.50;;;11.62;100.00
62849;BME280;48941;49.516;8.286;2024-02-26T11:41:05;98791.66;;;11.72;100.00
62849;BME280;48941;49.516;8.286;2024-02-26T11:43:50;98789.66;;;11.82;100.00
62849;BME280;48941;49.516;8.286;2024-02-26T11:46:25;98785.84;;;11.93;100.00
62849;BME280;48941;49.516;8.286;2024-02-26T11:48:56;98785.16;;;11.99;100.00
62849;BME280;48941;49.516;8.286;2024-02-26T11:51:25;98799.16;;;12.01;100.00
62849;BME280;48941;49.516;8.286;2024-02-26T11:53:54;98801.97;;;12.00;100.00
62849;BME280;48941;49.516;8.286;2024-02-26T11:56:24;98801.31;;;11.98;100.00
62849;BME280;48941;49.516;8.286;2024-02-26T11:59:00;98803.16;;;11.97;100.00
62849;BME280;48941;49.516;8.286;2024-02-26T12:01:42;98808.81;;;11.94;100.00
62849;BME280;48941;49.516;8.286;2024-02-26T12:04:16;98807.47;;;11.98;100.00
62849;BME280;48941;49.516;8.286;2024-02-26T12:06:46;98809.00;;;12.01;100.00
62849;BME280;48941;49.516;8.286;2024-02-26T12:09:33;98816.47;;;12.05;100.00
62849;BME280;48941;49.516;8.286;2024-02-26T12:12:02;98810.16;;;12.06;100.00
62849;BME280;48941;49.516;8.286;2024-02-26T12:14:34;98807.09;;;12.18;100.00
62849;BME280;48941;49.516;8.286;2024-02-26T12:17:03;98806.38;;;12.40;100.00
62849;BME280;48941;49.516;8.286;2024-02-26T12:19:34;98807.56;;;12.69;100.00
62849;BME280;48941;49.516;8.286;2024-02-26T12:22:08;98804.69;;;13.02;100.00
62849;BME280;48941;49.516;8.286;2024-02-26T12:24:36;98808.34;;;13.24;100.00
62849;BME280;48941;49.516;8.286;2024-02-26T12:27:04;98814.47;;;13.41;100.00
62849;BME280;48941;49.516;8.286;2024-02-26T12:29:34;98817.13;;;13.41;100.00
62849;BME280;48941;49.516;8.286;2024-02-26T12:32:03;98818.59;;;13.43;100.00
62849;BME280;48941;49.516;8.286;2024-02-26T12:34:34;98816.75;;;13.44;100.00
62849;BME280;48941;49.516;8.286;2024-02-26T12:37:02;98819.09;;;13.47;100.00
62849;BME280;48941;49.516;8.286;2024-02-26T12:39:33;98812.66;;;13.56;100.00
62849;BME280;48941;49.516;8.286;2024-02-26T12:42:01;98813.00;;;13.76;100.00
62849;BME280;48941;49.516;8.286;2024-02-26T12:44:31;98811.53;;;13.88;100.00
62849;BME280;48941;49.516;8.286;2024-02-26T12:47:04;98806.25;;;13.95;100.00
62849;BME280;48941;49.516;8.286;2024-02-26T12:49:33;98806.53;;;13.85;100.00
62849;BME280;48941;49.516;8.286;2024-02-26T12:52:02;98811.22;;;13.83;100.00
62849;BME280;48941;49.516;8.286;2024-02-26T12:54:30;98811.13;;;13.77;100.00
62849;BME280;48941;49.516;8.286;2024-02-26T12:57:00;98810.84;;;13.71;100.00
62849;BME280;48941;49.516;8.286;2024-02-26T12:59:29;98819.13;;;13.62;100.00
62849;BME280;48941;49.516;8.286;2024-02-26T13:02:06;98820.03;;;13.54;100.00
62849;BME280;48941;49.516;8.286;2024-02-26T13:04:35;98828.31;;;13.44;100.00